Other Surface Observations
Issued by NWS Great Falls, MT

Home | Current Version | Previous Version | Text Only | Print | Product List | Glossary On
Versions: 1 2 3 4 5 6 7 8 9 10 11 12 13 14 15 16 17 18 19 20 21 22 23 24 25 26 27 28 29 30 31 32 33 34 35 36 37 38 39 40 41 42 43 44 45 46 47 48 49 50
000
SXUS55 KTFX 300344
OSOTFX
AREA AWOS OBSERVATIONS
NATIONAL WEATHER SERVICE GREAT FALLS MT
0944 PM MDT SUN MAY 29 2016

METAR KPO1 300345Z AUTO 00000KT 10SM 19/02 A2992 RMK POPLAR
METAR K1S3 300345Z AUTO 00000KT 10SM 18/09 A2991 RMK FORSYTH
METAR KS71 300345Z AUTO 00000KT 10SM 16/08 A2992 RMK CHINOOK
METAR K38S 300345Z AUTO 36003KT 10SM 12/06 A3004 RMK DEER LODGE
METAR K3U3 300345Z AUTO 23003KT 10/06 A3003 RMK ANACONDA
METAR K6S5 300345Z AUTO 04004KT 10SM 13/07 A3002 RMK HAMILTON
METAR KS59 300345Z AUTO 31006KT 10SM 15/04 A2995 RMK LIBBY
METAR K88M 300345Z AUTO 34015G21KT 10SM 11/06 RMK EUREKA



USA.gov is the U.S. government's official web portal to all federal, state and local government web resources and services.